TimeCDT,TemperatureF,Dew PointF,Humidity,Sea Level PressureIn,VisibilityMPH,Wind Direction,Wind SpeedMPH,Gust SpeedMPH,PrecipitationIn,Events,Conditions,WindDirDegrees,DateUTC
12:53 AM,43.0,28.9,58,30.17,10.0,West,16.1,28.8,N/A,,Overcast,280,2012-10-05 05:53:00
1:53 AM,43.0,28.0,56,30.16,10.0,West,19.6,27.6,N/A,,Overcast,280,2012-10-05 06:53:00
3:53 AM,41.0,27.0,57,30.14,10.0,WNW,15.0,29.9,N/A,,Partly Cloudy,290,2012-10-05 08:53:00
4:53 AM,39.0,26.1,60,30.15,10.0,West,10.4,21.9,N/A,,Clear,280,2012-10-05 09:53:00
5:53 AM,37.0,27.0,67,30.14,10.0,West,11.5,-,N/A,,Clear,270,2012-10-05 10:53:00
6:53 AM,35.1,26.1,70,30.15,10.0,WSW,9.2,-,N/A,,Clear,250,2012-10-05 11:53:00
7:53 AM,34.0,26.1,73,30.16,10.0,West,9.2,16.1,N/A,,Clear,260,2012-10-05 12:53:00
8:53 AM,36.0,27.0,70,30.17,10.0,West,15.0,24.2,N/A,,Clear,280,2012-10-05 13:53:00
9:53 AM,39.0,27.0,62,30.17,10.0,WNW,17.3,25.3,N/A,,Clear,300,2012-10-05 14:53:00
10:53 AM,41.0,26.1,55,30.16,10.0,West,19.6,29.9,N/A,,Partly Cloudy,280,2012-10-05 15:53:00
11:53 AM,44.1,26.1,49,30.14,10.0,WNW,19.6,26.5,N/A,,Partly Cloudy,290,2012-10-05 16:53:00
12:53 PM,46.0,26.1,46,30.14,10.0,WNW,17.3,27.6,N/A,,Scattered Clouds,290,2012-10-05 17:53:00
1:53 PM,46.9,26.1,44,30.13,10.0,NW,15.0,23.0,N/A,,Mostly Cloudy,320,2012-10-05 18:53:00
2:53 PM,46.9,25.0,42,30.12,10.0,NW,20.7,31.1,N/A,,Overcast,310,2012-10-05 19:53:00
3:53 PM,45.0,25.0,46,30.13,10.0,WNW,17.3,29.9,N/A,,Overcast,290,2012-10-05 20:53:00
4:53 PM,44.1,25.0,47,30.14,10.0,WNW,20.7,27.6,N/A,,Overcast,300,2012-10-05 21:53:00
5:53 PM,43.0,25.0,49,30.14,10.0,WNW,21.9,32.2,N/A,,Overcast,300,2012-10-05 22:53:00
6:53 PM,42.1,25.0,51,30.16,10.0,WNW,16.1,23.0,N/A,,Overcast,290,2012-10-05 23:53:00
7:53 PM,42.1,25.0,51,30.17,10.0,WNW,13.8,23.0,N/A,,Overcast,300,2012-10-06 00:53:00
8:53 PM,42.1,26.1,53,30.17,10.0,WNW,20.7,27.6,N/A,,Overcast,290,2012-10-06 01:53:00
9:53 PM,41.0,26.1,55,30.17,10.0,NW,16.1,27.6,N/A,,Mostly Cloudy,310,2012-10-06 02:53:00
10:53 PM,39.9,27.0,60,30.17,10.0,WNW,12.7,-,N/A,,Overcast,300,2012-10-06 03:53:00
11:53 PM,37.9,27.0,65,30.17,10.0,WNW,18.4,23.0,N/A,,Overcast,290,2012-10-06 04:53:00